createdAt,value
2018-12-16T00:00:09.015Z,13.40
2018-12-16T00:02:36.550Z,12.50
2018-12-16T00:05:04.188Z,13.60
2018-12-16T00:07:31.691Z,14.30
2018-12-16T00:09:59.219Z,14.80
2018-12-16T00:12:26.711Z,13.07
2018-12-16T00:14:54.150Z,13.67
2018-12-16T00:17:21.625Z,14.43
2018-12-16T00:19:49.118Z,14.17
2018-12-16T00:22:17.343Z,13.70
2018-12-16T00:24:44.832Z,14.37
2018-12-16T00:27:12.587Z,14.13
2018-12-16T00:29:40.346Z,13.60
2018-12-16T00:32:07.880Z,13.97
2018-12-16T00:34:35.360Z,13.53
2018-12-16T00:37:02.898Z,14.10
2018-12-16T00:39:30.364Z,14.60
2018-12-16T00:41:57.845Z,13.33
2018-12-16T00:44:25.380Z,14.10
2018-12-16T00:46:52.967Z,14.33
2018-12-16T00:49:20.443Z,13.30
2018-12-16T00:51:47.985Z,13.50
2018-12-16T00:54:15.490Z,11.90
2018-12-16T00:56:43.326Z,13.73
2018-12-16T00:59:10.798Z,15.20
2018-12-16T01:01:38.337Z,14.07
2018-12-16T01:04:06.536Z,13.77
2018-12-16T01:06:34.006Z,13.27
2018-12-16T01:09:01.454Z,13.40
2018-12-16T01:11:29.002Z,13.30
2018-12-16T01:13:56.453Z,12.80
2018-12-16T01:16:23.988Z,13.30
2018-12-16T01:18:51.419Z,12.77
2018-12-16T01:21:18.949Z,14.27
2018-12-16T01:23:46.411Z,13.67
2018-12-16T01:26:13.990Z,13.77
2018-12-16T01:28:41.522Z,13.70
2018-12-16T01:31:09.276Z,13.33
2018-12-16T01:33:36.915Z,12.80
2018-12-16T01:36:04.572Z,13.27
2018-12-16T01:38:32.171Z,14.50
2018-12-16T01:40:59.779Z,13.73
2018-12-16T01:43:27.391Z,12.33
2018-12-16T01:45:54.916Z,12.63
2018-12-16T01:48:22.408Z,13.10
2018-12-16T01:50:49.920Z,13.10
2018-12-16T01:53:17.399Z,12.33
2018-12-16T01:55:45.033Z,13.73
2018-12-16T01:58:12.492Z,13.87
2018-12-16T02:00:40.008Z,13.93
2018-12-16T02:03:07.612Z,12.97
2018-12-16T02:05:35.144Z,13.10
2018-12-16T02:08:02.869Z,12.53
2018-12-16T02:10:30.393Z,14.80
2018-12-16T02:12:57.896Z,14.47
2018-12-16T02:15:25.358Z,12.20
2018-12-16T02:17:53.865Z,12.93
2018-12-16T02:20:21.455Z,12.67
2018-12-16T02:22:49.029Z,13.10
2018-12-16T02:25:16.582Z,14.63
2018-12-16T02:27:44.071Z,15.67
2018-12-16T02:30:13.557Z,13.40
2018-12-16T02:32:41.113Z,14.47
2018-12-16T02:35:08.587Z,12.00
2018-12-16T02:37:36.069Z,12.37
2018-12-16T02:40:03.929Z,15.43
2018-12-16T02:42:31.507Z,14.63
2018-12-16T02:44:58.963Z,14.87
2018-12-16T02:47:26.416Z,14.53
2018-12-16T02:49:53.904Z,12.47
2018-12-16T02:52:21.325Z,13.50
2018-12-16T02:54:48.802Z,15.10
2018-12-16T02:57:16.332Z,14.23
2018-12-16T02:59:43.762Z,13.40
2018-12-16T03:02:11.241Z,14.13
2018-12-16T03:04:38.689Z,14.33
2018-12-16T03:07:06.445Z,14.70
2018-12-16T03:09:33.929Z,13.10
2018-12-16T03:12:01.399Z,14.83
2018-12-16T03:14:29.005Z,13.57
2018-12-16T03:16:56.574Z,14.70
2018-12-16T03:19:24.063Z,14.20
2018-12-16T03:21:51.544Z,14.40
2018-12-16T03:24:19.022Z,13.60
2018-12-16T03:26:46.478Z,14.30
2018-12-16T03:29:13.901Z,13.60
2018-12-16T03:31:41.339Z,14.33
2018-12-16T03:34:08.905Z,12.27
2018-12-16T03:36:36.440Z,14.57
2018-12-16T03:39:06.030Z,13.50
2018-12-16T03:41:33.605Z,14.97
2018-12-16T03:44:01.309Z,15.33
2018-12-16T03:46:28.770Z,12.73
2018-12-16T03:48:56.333Z,14.87
2018-12-16T03:51:23.828Z,12.97
2018-12-16T03:53:51.493Z,15.10
2018-12-16T03:56:19.034Z,14.10
2018-12-16T03:58:58.550Z,13.80
2018-12-16T04:01:26.139Z,15.07
2018-12-16T04:03:53.655Z,14.23
2018-12-16T04:06:21.239Z,13.40
2018-12-16T04:08:48.839Z,14.40
2018-12-16T04:11:16.383Z,13.93
2018-12-16T04:13:44.773Z,13.80
2018-12-16T04:16:12.336Z,14.20
2018-12-16T04:18:40.891Z,14.73
2018-12-16T04:21:08.414Z,14.83
2018-12-16T04:23:36.113Z,16.63
2018-12-16T04:26:03.788Z,14.90
2018-12-16T04:28:31.586Z,15.33
2018-12-16T04:30:59.051Z,17.03
2018-12-16T04:33:26.544Z,16.13
2018-12-16T04:35:54.124Z,16.77
2018-12-16T04:38:21.740Z,16.20
2018-12-16T04:40:49.287Z,17.13
2018-12-16T04:43:16.891Z,16.70
2018-12-16T04:45:44.380Z,16.73
2018-12-16T04:48:12.001Z,18.03
2018-12-16T04:50:39.558Z,16.37
2018-12-16T04:53:07.087Z,17.50
2018-12-16T04:55:34.689Z,16.40
2018-12-16T04:58:02.249Z,17.70
2018-12-16T05:00:29.716Z,19.07
2018-12-16T05:02:57.280Z,17.83
2018-12-16T05:05:24.840Z,18.47
2018-12-16T05:07:52.715Z,16.27
2018-12-16T05:10:24.198Z,17.60
2018-12-16T05:12:51.751Z,17.10
2018-12-16T05:15:19.265Z,16.20
2018-12-16T05:17:46.883Z,16.97
2018-12-16T05:20:14.497Z,16.13
2018-12-16T05:22:42.196Z,16.73
2018-12-16T05:25:09.961Z,17.83
2018-12-16T05:27:37.424Z,16.20
2018-12-16T05:30:08.665Z,17.97
2018-12-16T05:32:36.161Z,16.60
2018-12-16T05:35:05.028Z,16.47
2018-12-16T05:37:32.742Z,15.53
2018-12-16T05:40:00.271Z,16.20
2018-12-16T05:42:28.015Z,19.23
2018-12-16T05:44:55.498Z,19.83
2018-12-16T05:47:23.156Z,17.90
2018-12-16T05:49:50.956Z,17.40
2018-12-16T05:52:18.499Z,15.90
2018-12-16T05:54:46.148Z,17.93
2018-12-16T05:57:13.658Z,17.00
2018-12-16T05:59:41.494Z,16.37
2018-12-16T06:02:08.987Z,19.10
2018-12-16T06:04:36.510Z,15.50
2018-12-16T06:07:04.181Z,17.03
2018-12-16T06:09:32.131Z,18.17
2018-12-16T06:11:59.588Z,17.10
2018-12-16T06:14:27.133Z,18.00
2018-12-16T06:16:54.668Z,19.00
2018-12-16T06:19:22.288Z,18.33
2018-12-16T06:21:49.855Z,16.80
2018-12-16T06:24:17.336Z,16.90
2018-12-16T06:26:45.013Z,17.30
2018-12-16T06:29:12.549Z,19.93
2018-12-16T06:31:40.046Z,20.30
2018-12-16T06:34:07.499Z,18.20
2018-12-16T06:36:34.934Z,18.93
2018-12-16T06:39:02.389Z,18.20
2018-12-16T06:41:29.827Z,19.43
2018-12-16T06:43:57.371Z,16.57
2018-12-16T06:46:25.857Z,20.27
2018-12-16T06:48:53.344Z,18.13
2018-12-16T06:51:20.911Z,17.60
2018-12-16T06:53:48.469Z,18.37
2018-12-16T06:56:15.908Z,19.17
2018-12-16T06:58:43.373Z,18.70
2018-12-16T07:01:11.029Z,18.00
2018-12-16T07:03:38.522Z,20.33
2018-12-16T07:06:06.013Z,19.70
2018-12-16T07:08:33.586Z,20.30
2018-12-16T07:11:01.088Z,17.90
2018-12-16T07:13:29.532Z,18.10
2018-12-16T07:15:57.310Z,21.33
2018-12-16T07:18:24.859Z,19.27
2018-12-16T07:20:52.334Z,18.70
2018-12-16T07:23:19.804Z,19.90
2018-12-16T07:25:47.494Z,21.50
2018-12-16T07:28:16.594Z,19.33
2018-12-16T07:30:44.621Z,18.03
2018-12-16T07:33:12.267Z,18.87
2018-12-16T07:35:39.889Z,21.10
2018-12-16T07:38:07.440Z,19.30
2018-12-16T07:40:35.103Z,20.03
2018-12-16T07:43:03.096Z,19.37
2018-12-16T07:45:30.661Z,21.93
2018-12-16T07:47:58.374Z,20.23
2018-12-16T07:50:25.993Z,19.13
2018-12-16T07:52:53.585Z,17.90
2018-12-16T07:55:21.076Z,18.70
2018-12-16T07:57:48.592Z,20.13
2018-12-16T08:00:16.126Z,20.70
2018-12-16T08:02:43.675Z,18.87
2018-12-16T08:05:11.258Z,17.80
2018-12-16T08:07:38.877Z,18.93
2018-12-16T08:10:06.537Z,19.57
2018-12-16T08:12:34.199Z,18.37
2018-12-16T08:15:01.786Z,21.40
2018-12-16T08:17:29.328Z,21.47
2018-12-16T08:19:56.768Z,20.33
2018-12-16T08:22:24.286Z,20.40
2018-12-16T08:24:51.975Z,18.90
2018-12-16T08:27:19.431Z,17.93
2018-12-16T08:29:47.029Z,20.40
2018-12-16T08:32:14.492Z,18.90
2018-12-16T08:34:43.426Z,21.23
2018-12-16T08:37:10.889Z,20.23
2018-12-16T08:39:38.375Z,21.17
2018-12-16T08:42:05.856Z,20.60
2018-12-16T08:44:33.343Z,20.97
2018-12-16T08:47:00.827Z,19.93
2018-12-16T08:49:28.433Z,22.10
2018-12-16T08:51:56.033Z,19.13
2018-12-16T08:54:30.068Z,21.20
2018-12-16T08:56:54.333Z,19.67
2018-12-16T08:59:21.882Z,17.97
2018-12-16T09:01:49.321Z,18.53
2018-12-16T09:04:16.896Z,23.63
2018-12-16T09:06:44.390Z,20.43
2018-12-16T09:09:12.224Z,21.10
2018-12-16T09:11:39.753Z,22.77
2018-12-16T09:14:07.310Z,21.50
2018-12-16T09:16:34.817Z,22.13
2018-12-16T09:19:02.312Z,21.80
2018-12-16T09:21:29.851Z,18.77
2018-12-16T09:23:57.406Z,22.97
2018-12-16T09:26:24.873Z,20.90
2018-12-16T09:28:52.309Z,21.23
2018-12-16T09:31:19.793Z,19.47
2018-12-16T09:33:48.224Z,18.60
2018-12-16T09:36:15.679Z,21.50
2018-12-16T09:38:43.142Z,21.60
2018-12-16T09:41:10.597Z,21.33
2018-12-16T09:43:38.490Z,22.10
2018-12-16T09:46:05.974Z,20.23
2018-12-16T09:48:33.539Z,18.93
2018-12-16T09:51:00.988Z,21.00
2018-12-16T09:53:28.484Z,22.00
2018-12-16T09:55:55.982Z,20.33
2018-12-16T09:58:24.707Z,20.57
2018-12-16T10:00:52.176Z,19.37
2018-12-16T10:03:19.700Z,19.83
2018-12-16T10:05:47.194Z,21.83
2018-12-16T10:08:14.636Z,21.43
2018-12-16T10:10:42.393Z,21.07
2018-12-16T10:13:10.003Z,20.47
2018-12-16T10:15:37.459Z,21.87
2018-12-16T10:18:04.898Z,20.03
2018-12-16T10:20:32.709Z,24.70
2018-12-16T10:23:00.151Z,23.07
2018-12-16T10:25:27.794Z,22.10
2018-12-16T10:27:55.231Z,21.67
2018-12-16T10:30:22.690Z,20.97
2018-12-16T10:32:50.146Z,23.07
2018-12-16T10:35:17.600Z,22.67
2018-12-16T10:37:45.064Z,20.57
2018-12-16T10:40:12.668Z,22.17
2018-12-16T10:42:40.206Z,21.73
2018-12-16T10:45:07.999Z,21.47
2018-12-16T10:47:35.480Z,19.80
2018-12-16T10:50:04.731Z,20.47
2018-12-16T10:52:32.191Z,21.47
2018-12-16T10:54:59.671Z,23.80
2018-12-16T10:57:27.118Z,21.00
2018-12-16T10:59:54.702Z,22.60
2018-12-16T11:02:22.276Z,24.83
2018-12-16T11:04:49.843Z,22.70
2018-12-16T11:07:18.292Z,24.40
2018-12-16T11:09:45.739Z,23.07
2018-12-16T11:12:13.206Z,23.00
2018-12-16T11:14:40.885Z,21.97
2018-12-16T11:17:08.345Z,21.40
2018-12-16T11:19:35.868Z,21.60
2018-12-16T11:22:04.636Z,22.10
2018-12-16T11:24:32.089Z,22.33
2018-12-16T11:26:59.527Z,24.40
2018-12-16T11:29:26.981Z,21.17
2018-12-16T11:31:54.494Z,22.03
2018-12-16T11:34:22.019Z,22.90
2018-12-16T11:36:49.488Z,25.20
2018-12-16T11:39:16.936Z,25.20
2018-12-16T11:41:44.424Z,22.73
2018-12-16T11:44:11.893Z,24.50
2018-12-16T11:46:39.468Z,23.10
2018-12-16T11:49:06.954Z,20.57
2018-12-16T11:51:34.403Z,23.70
2018-12-16T11:54:01.864Z,22.23
2018-12-16T11:56:29.361Z,22.93
2018-12-16T11:58:56.866Z,21.90
2018-12-16T12:01:24.326Z,23.70
2018-12-16T12:03:52.197Z,23.57
2018-12-16T12:06:20.012Z,23.73
2018-12-16T12:08:47.528Z,26.70
2018-12-16T12:11:15.027Z,23.13
2018-12-16T12:13:42.578Z,23.73
2018-12-16T12:16:10.039Z,22.27
2018-12-16T12:18:37.508Z,22.50
2018-12-16T12:21:05.075Z,22.63
2018-12-16T12:23:32.509Z,24.40
2018-12-16T12:26:00.008Z,26.43
2018-12-16T12:28:27.706Z,25.60
2018-12-16T12:30:55.726Z,26.07
2018-12-16T12:33:23.174Z,25.90
2018-12-16T12:35:50.638Z,25.63
2018-12-16T12:38:18.125Z,25.93
2018-12-16T12:40:45.654Z,25.43
2018-12-16T12:43:13.129Z,23.70
2018-12-16T12:45:40.582Z,25.60
2018-12-16T12:48:08.039Z,27.60
2018-12-16T12:50:35.495Z,37.80
2018-12-16T12:53:02.966Z,35.10
2018-12-16T12:55:30.421Z,26.20
2018-12-16T12:57:58.000Z,22.83
2018-12-16T13:00:25.820Z,23.93
2018-12-16T13:02:53.405Z,46.67
2018-12-16T13:05:20.880Z,95.67
2018-12-16T13:07:48.351Z,37.63
2018-12-16T13:10:15.819Z,26.33
2018-12-16T13:12:43.309Z,24.87
2018-12-16T13:15:10.855Z,25.57
2018-12-16T13:17:38.409Z,26.90
2018-12-16T13:20:06.295Z,26.83
2018-12-16T13:22:33.838Z,50.00
2018-12-16T13:25:13.181Z,35.43
2018-12-16T13:27:40.648Z,28.50
2018-12-16T13:30:08.537Z,24.77
2018-12-16T13:32:36.084Z,25.50
2018-12-16T13:35:04.374Z,22.80
2018-12-16T13:37:31.842Z,24.90
2018-12-16T13:39:59.324Z,22.90
2018-12-16T13:42:27.250Z,23.70
2018-12-16T13:44:54.746Z,22.37
2018-12-16T13:47:22.239Z,23.10
2018-12-16T13:49:49.732Z,24.37
2018-12-16T13:52:17.193Z,23.50
2018-12-16T13:54:44.728Z,22.23
2018-12-16T13:57:12.235Z,20.93
2018-12-16T13:59:39.765Z,24.03
2018-12-16T14:02:07.484Z,21.50
2018-12-16T14:04:35.064Z,21.93
2018-12-16T14:07:02.566Z,19.57
2018-12-16T14:09:30.064Z,21.30
2018-12-16T14:11:57.603Z,21.27
2018-12-16T14:14:25.080Z,22.53
2018-12-16T14:16:52.544Z,22.63
2018-12-16T14:19:20.067Z,22.70
2018-12-16T14:21:47.533Z,23.30
2018-12-16T14:24:15.053Z,21.00
2018-12-16T14:26:42.542Z,23.50
2018-12-16T14:29:10.121Z,22.47
2018-12-16T14:31:37.624Z,23.57
2018-12-16T14:34:05.339Z,23.67
2018-12-16T14:36:32.840Z,22.63
2018-12-16T14:39:00.433Z,23.87
2018-12-16T14:41:27.912Z,23.60
2018-12-16T14:43:55.790Z,25.90
2018-12-16T14:46:23.285Z,23.67
2018-12-16T14:48:50.724Z,24.80
2018-12-16T14:51:18.275Z,22.57
2018-12-16T14:53:46.246Z,21.20
2018-12-16T14:56:14.777Z,23.90
2018-12-16T14:58:43.023Z,20.60
2018-12-16T15:01:10.550Z,21.97
2018-12-16T15:03:38.660Z,24.33
2018-12-16T15:06:06.378Z,23.90
2018-12-16T15:08:34.348Z,24.10
2018-12-16T15:11:02.598Z,25.20
2018-12-16T15:13:30.121Z,24.70
2018-12-16T15:15:57.670Z,24.57
2018-12-16T15:18:25.183Z,22.43
2018-12-16T15:20:52.909Z,24.70
2018-12-16T15:23:20.569Z,27.50
2018-12-16T15:25:48.252Z,26.37
2018-12-16T15:28:16.241Z,25.80
2018-12-16T15:30:44.354Z,26.13
2018-12-16T15:33:13.681Z,27.47
2018-12-16T15:35:42.454Z,26.17
2018-12-16T15:38:09.971Z,25.47
2018-12-16T15:40:37.555Z,25.43
2018-12-16T15:43:05.058Z,24.57
2018-12-16T15:45:32.551Z,24.20
2018-12-16T15:48:00.128Z,25.30
2018-12-16T15:50:27.754Z,27.73
2018-12-16T15:52:55.325Z,25.90
2018-12-16T15:55:22.806Z,26.13
2018-12-16T15:57:50.341Z,26.77
2018-12-16T16:00:17.843Z,22.90
2018-12-16T16:02:45.333Z,24.97
2018-12-16T16:05:13.593Z,26.27
2018-12-16T16:07:41.091Z,27.80
2018-12-16T16:10:08.722Z,26.67
2018-12-16T16:12:37.068Z,26.47
2018-12-16T16:15:05.445Z,26.70
2018-12-16T16:17:32.931Z,25.73
2018-12-16T16:20:00.405Z,27.37
2018-12-16T16:22:27.959Z,30.53
2018-12-16T16:24:55.484Z,27.93
2018-12-16T16:27:22.982Z,26.10
2018-12-16T16:29:50.524Z,28.83
2018-12-16T16:32:18.090Z,30.17
2018-12-16T16:34:45.579Z,28.63
2018-12-16T16:37:13.918Z,30.33
2018-12-16T16:39:41.391Z,30.10
2018-12-16T16:42:08.889Z,28.27
2018-12-16T16:44:36.365Z,27.70
2018-12-16T16:47:04.030Z,27.97
2018-12-16T16:49:31.597Z,29.87
2018-12-16T16:51:59.101Z,30.67
2018-12-16T16:54:26.679Z,28.60
2018-12-16T16:56:54.214Z,28.83
2018-12-16T16:59:22.270Z,31.10
2018-12-16T17:01:49.816Z,30.43
2018-12-16T17:04:17.318Z,29.23
2018-12-16T17:06:45.357Z,30.70
2018-12-16T17:09:12.871Z,29.23
2018-12-16T17:11:40.482Z,29.57
2018-12-16T17:14:08.027Z,28.53
2018-12-16T17:16:35.506Z,29.47
2018-12-16T17:19:03.460Z,32.87
2018-12-16T17:21:31.535Z,31.70
2018-12-16T17:23:59.131Z,33.07
2018-12-16T17:26:30.232Z,32.57
2018-12-16T17:28:56.802Z,31.03
2018-12-16T17:31:24.329Z,31.07
2018-12-16T17:33:51.799Z,33.00
2018-12-16T17:36:19.345Z,32.27
2018-12-16T17:38:46.834Z,29.17
2018-12-16T17:41:15.057Z,32.00
2018-12-16T17:43:42.619Z,33.73
2018-12-16T17:46:10.142Z,27.73
2018-12-16T17:48:37.688Z,33.37
2018-12-16T17:51:05.164Z,31.57
2018-12-16T17:53:32.738Z,29.83
2018-12-16T17:56:01.010Z,30.07
2018-12-16T17:58:28.887Z,32.67
2018-12-16T18:00:56.345Z,31.37
2018-12-16T18:03:23.925Z,27.63
2018-12-16T18:05:51.397Z,27.80
2018-12-16T18:08:18.871Z,31.00
2018-12-16T18:10:48.324Z,29.53
2018-12-16T18:13:16.007Z,29.57
2018-12-16T18:15:43.453Z,30.00
2018-12-16T18:18:10.942Z,32.07
2018-12-16T18:20:38.380Z,35.80
2018-12-16T18:23:05.859Z,31.30
2018-12-16T18:25:33.359Z,31.83
2018-12-16T18:28:00.821Z,31.90
2018-12-16T18:30:28.359Z,35.70
2018-12-16T18:32:56.097Z,30.47
2018-12-16T18:35:23.555Z,28.70
2018-12-16T18:37:52.435Z,28.10
2018-12-16T18:40:19.901Z,31.53
2018-12-16T18:42:47.408Z,29.30
2018-12-16T18:45:14.887Z,29.20
2018-12-16T18:47:42.337Z,31.30
2018-12-16T18:50:09.996Z,31.37
2018-12-16T18:52:37.501Z,31.23
2018-12-16T18:55:05.402Z,31.37
2018-12-16T18:57:32.983Z,31.70
2018-12-16T19:00:00.544Z,29.20
2018-12-16T19:02:28.110Z,30.47
2018-12-16T19:04:56.017Z,27.87
2018-12-16T19:07:23.516Z,30.43
2018-12-16T19:09:51.001Z,28.93
2018-12-16T19:12:18.545Z,30.63
2018-12-16T19:14:46.641Z,31.50
2018-12-16T19:17:14.108Z,30.87
2018-12-16T19:19:41.603Z,26.60
2018-12-16T19:22:09.062Z,25.97
2018-12-16T19:24:36.746Z,30.30
2018-12-16T19:27:04.242Z,31.03
2018-12-16T19:29:31.785Z,28.53
2018-12-16T19:31:59.254Z,27.80
2018-12-16T19:34:27.050Z,26.90
2018-12-16T19:36:54.617Z,26.53
2018-12-16T19:39:22.116Z,27.30
2018-12-16T19:41:49.611Z,28.10
2018-12-16T19:44:17.164Z,29.43
2018-12-16T19:46:44.819Z,29.73
2018-12-16T19:49:12.392Z,29.83
2018-12-16T19:51:40.081Z,29.03
2018-12-16T19:54:07.619Z,28.43
2018-12-16T19:56:35.119Z,28.20
2018-12-16T19:59:02.741Z,25.90
2018-12-16T20:01:30.513Z,28.97
2018-12-16T20:04:03.804Z,25.37
2018-12-16T20:06:36.985Z,29.50
2018-12-16T20:09:05.898Z,27.53
2018-12-16T20:11:33.400Z,27.30
2018-12-16T20:14:01.002Z,27.03
2018-12-16T20:16:29.132Z,29.10
2018-12-16T20:18:56.626Z,26.77
2018-12-16T20:21:24.095Z,26.60
2018-12-16T20:23:52.388Z,26.40
2018-12-16T20:26:19.958Z,32.27
2018-12-16T20:28:47.570Z,29.20
2018-12-16T20:31:15.207Z,27.57
2018-12-16T20:33:43.290Z,26.10
2018-12-16T20:36:10.840Z,26.10
2018-12-16T20:38:38.348Z,30.87
2018-12-16T20:41:05.882Z,29.53
2018-12-16T20:43:33.520Z,28.20
2018-12-16T20:46:01.342Z,27.37
2018-12-16T20:48:28.913Z,30.90
2018-12-16T20:50:56.486Z,28.47
2018-12-16T20:53:24.012Z,30.90
2018-12-16T20:55:51.532Z,28.30
2018-12-16T20:58:19.101Z,30.23
2018-12-16T21:00:46.571Z,28.90
2018-12-16T21:03:14.046Z,31.20
2018-12-16T21:05:41.568Z,32.53
2018-12-16T21:08:09.172Z,35.40
2018-12-16T21:10:36.833Z,31.80
2018-12-16T21:13:10.073Z,29.67
2018-12-16T21:15:43.519Z,30.33
2018-12-16T21:18:16.753Z,33.73
2018-12-16T21:20:44.491Z,31.63
2018-12-16T21:23:12.020Z,34.97
2018-12-16T21:25:39.495Z,32.77
2018-12-16T21:28:06.967Z,33.07
2018-12-16T21:30:34.898Z,30.20
2018-12-16T21:33:02.474Z,36.03
2018-12-16T21:35:30.096Z,30.63
2018-12-16T21:37:57.534Z,33.37
2018-12-16T21:40:25.165Z,32.03
2018-12-16T21:42:53.071Z,34.13
2018-12-16T21:45:20.570Z,31.00
2018-12-16T21:47:48.061Z,33.80
2018-12-16T21:50:16.588Z,30.90
2018-12-16T21:52:44.057Z,29.87
2018-12-16T21:55:11.565Z,34.23
2018-12-16T21:57:39.047Z,30.20
2018-12-16T22:00:07.534Z,31.93
2018-12-16T22:02:35.022Z,34.60
2018-12-16T22:05:02.558Z,33.50
2018-12-16T22:07:30.141Z,32.17
2018-12-16T22:09:57.688Z,29.47
2018-12-16T22:12:25.202Z,32.60
2018-12-16T22:14:52.672Z,31.00
2018-12-16T22:17:20.145Z,31.77
2018-12-16T22:19:47.642Z,33.87
2018-12-16T22:22:15.141Z,32.50
2018-12-16T22:24:42.588Z,33.17
2018-12-16T22:27:10.184Z,30.23
2018-12-16T22:29:37.626Z,30.43
2018-12-16T22:32:05.130Z,30.97
2018-12-16T22:34:32.682Z,32.20
2018-12-16T22:37:00.152Z,33.07
2018-12-16T22:39:28.447Z,33.87
2018-12-16T22:41:55.954Z,32.70
2018-12-16T22:44:23.432Z,30.50
2018-12-16T22:46:51.275Z,31.60
2018-12-16T22:49:19.336Z,33.37
2018-12-16T22:51:46.871Z,31.90
2018-12-16T22:54:14.376Z,35.30
2018-12-16T22:56:41.957Z,32.53
2018-12-16T22:59:09.424Z,31.03
2018-12-16T23:01:36.905Z,34.07
2018-12-16T23:04:04.505Z,29.67
2018-12-16T23:06:32.615Z,35.10
2018-12-16T23:09:00.229Z,34.03
2018-12-16T23:11:28.095Z,29.77
2018-12-16T23:13:55.562Z,32.47
2018-12-16T23:16:23.142Z,32.90
2018-12-16T23:18:50.695Z,28.73
2018-12-16T23:21:18.188Z,30.30
2018-12-16T23:23:46.588Z,29.77
2018-12-16T23:26:14.044Z,32.77
2018-12-16T23:28:41.601Z,31.23
2018-12-16T23:31:09.182Z,31.97
2018-12-16T23:33:36.813Z,29.90
2018-12-16T23:36:04.358Z,31.30
2018-12-16T23:38:31.830Z,30.00
2018-12-16T23:40:59.358Z,28.87
2018-12-16T23:43:26.831Z,29.63
2018-12-16T23:45:54.264Z,29.17
2018-12-16T23:48:21.815Z,31.50
2018-12-16T23:50:49.291Z,29.20
2018-12-16T23:53:16.756Z,30.13
2018-12-16T23:55:45.108Z,29.83
2018-12-16T23:58:13.214Z,31.03
